Time;durP1;ratioP1;P1;durP2;ratioP2;P2;SDS_P1;SDS_P2;PMS_P1;PMS_P2;Temp;Humidity;BMP_temperature;BMP_pressure;BME280_temperature;BME280_humidity;BME280_pressure;Samples;Min_cycle;Max_cycle;Signal;HPM_P1;HPM_P2
2022/05/11 00:01:00;;;;;;;8.55;2.28;;;20.90;58.70;;;;;;5034197;28;20045;-66
2022/05/11 00:03:25;;;;;;;7.53;1.90;;;20.80;58.60;;;;;;5035710;28;20021;-66
2022/05/11 00:05:51;;;;;;;7.95;2.00;;;20.80;58.70;;;;;;5033080;28;20303;-66
2022/05/11 00:08:17;;;;;;;8.63;2.40;;;20.80;58.70;;;;;;5038846;28;20105;-66
2022/05/11 00:10:42;;;;;;;4.82;1.77;;;20.80;58.70;;;;;;5032064;28;20283;-66
2022/05/11 00:13:08;;;;;;;5.82;2.08;;;20.80;58.70;;;;;;5036946;28;20040;-66
2022/05/11 00:15:34;;;;;;;6.72;1.92;;;20.80;58.70;;;;;;5033633;28;20042;-66
2022/05/11 00:18:00;;;;;;;6.80;2.03;;;20.80;58.80;;;;;;5037848;28;20116;-66
2022/05/11 00:20:25;;;;;;;5.75;2.05;;;20.80;58.80;;;;;;5039063;28;20517;-66
2022/05/11 00:22:57;;;;;;;8.52;2.00;;;20.80;58.80;;;;;;5035733;28;20106;-65
2022/05/11 00:25:25;;;;;;;6.18;2.00;;;20.80;58.80;;;;;;5040837;28;20028;-66
2022/05/11 00:27:52;;;;;;;8.25;2.20;;;20.70;58.70;;;;;;5034581;28;20036;-66
2022/05/11 00:30:18;;;;;;;6.78;2.00;;;20.70;58.70;;;;;;5033459;28;20425;-66
2022/05/11 00:32:44;;;;;;;8.10;1.83;;;20.70;58.70;;;;;;5035095;28;20032;-66
2022/05/11 00:35:09;;;;;;;7.32;1.80;;;20.70;58.80;;;;;;5041392;28;20524;-66
2022/05/11 00:37:35;;;;;;;5.80;1.60;;;20.70;58.70;;;;;;5036037;28;20506;-66
2022/05/11 00:40:01;;;;;;;6.72;2.20;;;20.70;58.80;;;;;;5034894;28;20036;-66
2022/05/11 00:42:26;;;;;;;5.15;1.58;;;20.70;58.80;;;;;;5033249;28;20021;-66
2022/05/11 00:44:54;;;;;;;5.38;1.80;;;20.70;58.80;;;;;;5039831;28;20132;-65
2022/05/11 00:47:28;;;;;;;7.90;2.13;;;20.70;58.90;;;;;;5039802;28;20374;-66
2022/05/11 00:49:56;;;;;;;6.20;2.10;;;20.70;58.80;;;;;;5031541;28;20028;-66
2022/05/11 00:52:35;;;;;;;6.80;1.73;;;20.70;58.80;;;;;;5040763;28;20104;-66
2022/05/11 00:55:05;;;;;;;5.75;1.80;;;20.70;58.80;;;;;;5034910;28;20655;-66
2022/05/11 00:57:37;;;;;;;7.43;1.92;;;20.60;58.90;;;;;;5039059;28;20493;-66
2022/05/11 01:00:05;;;;;;;5.65;1.90;;;20.60;58.80;;;;;;5036514;28;20347;-66
2022/05/11 01:02:31;;;;;;;6.07;2.00;;;20.60;58.80;;;;;;5036285;28;20490;-66
2022/05/11 01:04:59;;;;;;;6.57;1.88;;;20.60;58.80;;;;;;5031218;28;20056;-66
2022/05/11 01:07:26;;;;;;;8.63;2.25;;;20.60;58.90;;;;;;5035769;28;20022;-66
2022/05/11 01:09:52;;;;;;;7.63;2.10;;;20.60;58.90;;;;;;5035951;28;20048;-66
2022/05/11 01:12:19;;;;;;;6.18;2.33;;;20.60;58.90;;;;;;5030098;28;20029;-66
2022/05/11 01:14:48;;;;;;;6.32;1.98;;;20.60;58.90;;;;;;5036857;28;20034;-66
2022/05/11 01:17:14;;;;;;;5.93;1.70;;;20.60;58.90;;;;;;5036107;28;20073;-66
2022/05/11 01:19:41;;;;;;;8.07;1.90;;;20.60;58.90;;;;;;5033808;28;20036;-66
2022/05/11 01:22:17;;;;;;;6.15;1.95;;;20.50;58.90;;;;;;5037966;28;20835;-66
2022/05/11 01:24:44;;;;;;;6.65;1.85;;;20.50;59.00;;;;;;5042254;28;20120;-66
2022/05/11 01:27:33;;;;;;;7.50;2.10;;;20.50;59.00;;;;;;5032931;28;20029;-66
2022/05/11 01:30:25;;;;;;;8.85;2.42;;;20.50;59.00;;;;;;5035054;28;20068;-66
2022/05/11 01:32:54;;;;;;;6.20;2.03;;;20.50;59.00;;;;;;5031847;28;20034;-66
2022/05/11 01:35:45;;;;;;;5.43;1.80;;;20.50;59.00;;;;;;5036097;28;20043;-66
2022/05/11 01:38:26;;;;;;;6.97;2.25;;;20.50;59.00;;;;;;5030982;28;20040;-66
2022/05/11 01:40:51;;;;;;;6.63;1.65;;;20.50;59.00;;;;;;5034798;28;20056;-66
2022/05/11 01:43:20;;;;;;;5.70;2.00;;;20.50;59.10;;;;;;5037395;28;20053;-66
2022/05/11 01:45:45;;;;;;;5.97;2.15;;;20.40;59.00;;;;;;5033616;28;20404;-66
2022/05/11 01:48:11;;;;;;;5.95;1.98;;;20.40;60.10;;;;;;5033205;28;20032;-65
2022/05/11 01:50:37;;;;;;;5.68;1.90;;;20.40;59.10;;;;;;5029141;28;20493;-66
2022/05/11 01:53:03;;;;;;;5.90;1.90;;;20.40;59.00;;;;;;5039261;28;20565;-66
2022/05/11 01:55:29;;;;;;;5.55;1.80;;;20.40;59.00;;;;;;5029578;28;20045;-66
2022/05/11 01:57:54;;;;;;;5.22;1.95;;;20.40;59.10;;;;;;5034896;28;20387;-66
2022/05/11 02:00:20;;;;;;;5.75;1.88;;;20.40;59.10;;;;;;5033647;28;20406;-66
2022/05/11 02:02:45;;;;;;;6.40;1.88;;;20.40;59.10;;;;;;5035800;28;20025;-66
2022/05/11 02:07:55;;;;;;;7.07;2.00;;;20.40;59.10;;;;;;5038094;28;20389;-66
2022/05/11 02:10:25;;;;;;;5.85;1.80;;;20.40;59.20;;;;;;5031077;28;20253;-66
2022/05/11 02:12:51;;;;;;;7.32;2.00;;;20.30;59.10;;;;;;5038271;28;20045;-66
2022/05/11 02:15:17;;;;;;;5.70;1.73;;;20.30;59.10;;;;;;5034083;28;20048;-66
2022/05/11 02:17:43;;;;;;;6.45;1.90;;;20.30;59.20;;;;;;5034755;28;20049;-66
2022/05/11 02:20:10;;;;;;;5.85;1.90;;;20.30;59.10;;;;;;5039087;28;20136;-66
2022/05/11 02:22:36;;;;;;;6.25;1.80;;;20.30;59.10;;;;;;5034231;28;20032;-66
2022/05/11 02:25:01;;;;;;;5.10;1.90;;;20.30;59.10;;;;;;5038069;28;20196;-66
2022/05/11 02:27:27;;;;;;;5.75;1.90;;;20.30;59.20;;;;;;5030803;28;20025;-66
2022/05/11 02:29:52;;;;;;;4.40;1.65;;;20.30;59.20;;;;;;5036168;28;20028;-66
2022/05/11 02:32:18;;;;;;;6.07;2.03;;;20.30;59.20;;;;;;5037206;28;20133;-66
2022/05/11 02:37:28;;;;;;;5.30;1.70;;;20.20;59.20;;;;;;5030587;28;20036;-66
2022/05/11 02:39:54;;;;;;;6.47;2.13;;;20.20;59.20;;;;;;5032920;28;20029;-66
2022/05/11 02:42:19;;;;;;;7.22;1.98;;;20.20;59.20;;;;;;5031928;28;20071;-66
2022/05/11 02:44:45;;;;;;;6.65;1.77;;;20.20;59.20;;;;;;5037889;28;20053;-66
2022/05/11 02:47:12;;;;;;;5.90;1.80;;;20.20;59.20;;;;;;5033557;28;20825;-66
2022/05/11 02:49:37;;;;;;;5.55;1.63;;;20.20;59.10;;;;;;5034697;28;20118;-66
2022/05/11 02:52:03;;;;;;;6.43;1.98;;;20.20;59.20;;;;;;5035821;28;20469;-66
2022/05/11 02:54:29;;;;;;;5.22;1.75;;;20.20;59.20;;;;;;5031864;28;20067;-66
2022/05/11 02:56:54;;;;;;;4.32;1.60;;;20.20;59.20;;;;;;5033802;28;20025;-66
2022/05/11 02:59:20;;;;;;;6.47;1.90;;;20.20;59.20;;;;;;5032372;28;20021;-66
2022/05/11 03:01:46;;;;;;;6.00;1.70;;;20.20;59.20;;;;;;5031860;28;20022;-66
2022/05/11 03:04:11;;;;;;;6.10;1.88;;;20.20;59.20;;;;;;5033311;28;20036;-65
2022/05/11 03:06:37;;;;;;;5.40;1.90;;;20.20;59.20;;;;;;5036242;28;20022;-66
2022/05/11 03:09:03;;;;;;;4.82;1.80;;;20.10;59.20;;;;;;5036426;28;20029;-66
2022/05/11 03:11:28;;;;;;;7.30;2.22;;;20.10;59.20;;;;;;5029676;28;20036;-66
2022/05/11 03:13:54;;;;;;;4.28;1.83;;;20.10;59.20;;;;;;5036190;28;20527;-66
2022/05/11 03:16:20;;;;;;;5.55;1.75;;;20.10;59.20;;;;;;5029581;28;20037;-66
2022/05/11 03:18:46;;;;;;;6.55;2.10;;;20.10;59.30;;;;;;5035606;28;20029;-66
2022/05/11 03:21:11;;;;;;;6.15;1.75;;;20.10;59.20;;;;;;5033077;28;20029;-66
2022/05/11 03:23:37;;;;;;;4.72;1.85;;;20.10;59.30;;;;;;5030017;28;20532;-66
2022/05/11 03:26:03;;;;;;;7.35;2.20;;;20.10;59.30;;;;;;5034384;28;20522;-66
2022/05/11 03:28:29;;;;;;;5.60;1.85;;;20.10;59.30;;;;;;5033419;28;20505;-66
2022/05/11 03:30:55;;;;;;;5.22;1.95;;;20.10;59.30;;;;;;5031220;28;20387;-66
2022/05/11 03:36:05;;;;;;;6.82;2.22;;;20.00;59.20;;;;;;5041519;28;20477;-66
2022/05/11 03:38:31;;;;;;;5.65;1.88;;;20.00;59.20;;;;;;5038738;28;20109;-66
2022/05/11 03:40:58;;;;;;;4.38;1.70;;;20.00;59.20;;;;;;5036086;28;20104;-66
2022/05/11 03:43:23;;;;;;;5.97;2.20;;;20.00;59.20;;;;;;5042871;28;20034;-66
2022/05/11 03:45:49;;;;;;;5.57;1.80;;;20.00;59.30;;;;;;5031461;28;20095;-66
2022/05/11 03:48:16;;;;;;;6.07;1.98;;;20.00;59.40;;;;;;5035553;28;20029;-66
2022/05/11 03:50:42;;;;;;;5.35;1.85;;;20.00;59.40;;;;;;5041530;28;20017;-66
2022/05/11 03:53:08;;;;;;;5.65;1.80;;;20.00;59.40;;;;;;5035418;28;20049;-66
2022/05/11 03:55:34;;;;;;;4.32;1.45;;;20.00;59.40;;;;;;5034768;28;20095;-66
2022/05/11 03:58:01;;;;;;;4.82;1.80;;;20.00;59.40;;;;;;5035660;28;20030;-66
2022/05/11 04:00:26;;;;;;;5.72;2.00;;;20.00;59.40;;;;;;5039460;28;20033;-66
2022/05/11 04:02:53;;;;;;;3.78;1.65;;;20.00;59.40;;;;;;5039654;28;20025;-66
2022/05/11 04:05:19;;;;;;;7.13;1.83;;;20.00;59.40;;;;;;5038646;28;20084;-66
2022/05/11 04:07:44;;;;;;;5.82;1.80;;;20.00;59.50;;;;;;5033854;28;20033;-66
2022/05/11 04:10:11;;;;;;;4.88;1.73;;;19.90;59.40;;;;;;5035926;28;20029;-66
2022/05/11 04:12:37;;;;;;;6.50;2.17;;;20.00;59.50;;;;;;5034263;28;20038;-66
2022/05/11 04:15:03;;;;;;;4.80;1.80;;;19.90;59.50;;;;;;5033213;28;20098;-66
2022/05/11 04:17:29;;;;;;;4.78;1.60;;;19.90;59.50;;;;;;5037401;28;20029;-66
2022/05/11 04:19:55;;;;;;;5.65;1.88;;;19.90;59.50;;;;;;5031478;28;20033;-66
2022/05/11 04:22:21;;;;;;;6.55;1.95;;;19.90;59.50;;;;;;5034932;28;20044;-66
2022/05/11 04:24:46;;;;;;;6.57;1.67;;;19.90;59.60;;;;;;5041314;28;20324;-66
2022/05/11 04:27:13;;;;;;;5.00;1.90;;;19.90;59.70;;;;;;5036042;28;20025;-66
2022/05/11 04:29:39;;;;;;;4.93;1.65;;;19.90;59.60;;;;;;5034330;28;20706;-66
2022/05/11 04:32:05;;;;;;;4.25;1.67;;;19.90;59.60;;;;;;5034332;28;20021;-66
2022/05/11 04:34:31;;;;;;;4.93;1.95;;;19.90;59.60;;;;;;5036139;28;20048;-66
2022/05/11 04:36:56;;;;;;;5.47;1.80;;;19.90;59.60;;;;;;5041094;28;20033;-66
2022/05/11 04:39:22;;;;;;;4.38;1.80;;;19.80;59.70;;;;;;5033649;28;20368;-66
2022/05/11 04:41:48;;;;;;;4.35;1.77;;;19.80;59.60;;;;;;5041251;28;20040;-66
2022/05/11 04:44:13;;;;;;;5.63;1.88;;;19.80;59.70;;;;;;5035270;28;20124;-66
2022/05/11 04:46:39;;;;;;;4.25;1.80;;;19.80;59.70;;;;;;5035456;28;20150;-66
2022/05/11 04:49:16;;;;;;;4.40;1.90;;;19.80;59.80;;;;;;5035205;28;20068;-66
2022/05/11 04:51:51;;;;;;;5.63;2.00;;;19.80;59.80;;;;;;5041358;28;20088;-66
2022/05/11 04:54:17;;;;;;;5.10;1.90;;;19.80;59.70;;;;;;5039345;28;20160;-67
2022/05/11 04:56:43;;;;;;;7.47;2.15;;;19.80;59.80;;;;;;5036629;28;20061;-68
2022/05/11 04:59:09;;;;;;;8.40;2.20;;;19.80;60.90;;;;;;5037606;28;20643;-67
2022/05/11 05:01:35;;;;;;;8.40;2.30;;;19.80;61.00;;;;;;5028970;28;20033;-67
2022/05/11 05:04:01;;;;;;;12.07;2.00;;;19.80;61.00;;;;;;5039697;28;20132;-68
2022/05/11 05:06:32;;;;;;;8.93;2.25;;;19.80;60.90;;;;;;5035928;28;20096;-67
2022/05/11 05:08:59;;;;;;;8.43;1.90;;;19.80;60.90;;;;;;5038499;28;20052;-67
2022/05/11 05:11:25;;;;;;;5.40;1.85;;;19.80;61.00;;;;;;5037693;28;20432;-68
2022/05/11 05:13:51;;;;;;;5.20;1.95;;;19.80;61.00;;;;;;5041351;28;20039;-64
2022/05/11 05:16:16;;;;;;;7.35;2.13;;;19.80;61.00;;;;;;5041469;28;20025;-64
2022/05/11 05:18:42;;;;;;;12.25;2.50;;;19.80;61.20;;;;;;5031578;28;20398;-64
2022/05/11 05:21:07;;;;;;;8.98;2.13;;;19.80;61.30;;;;;;5043068;28;20041;-64
2022/05/11 05:23:35;;;;;;;7.15;2.30;;;19.80;61.30;;;;;;5033881;28;20252;-62
2022/05/11 05:26:02;;;;;;;7.13;1.90;;;19.80;61.30;;;;;;5036094;28;20524;-64
2022/05/11 05:31:14;;;;;;;;;;;19.80;61.90;;;;;;5034419;28;20039;-64
2022/05/11 05:33:40;;;;;;;9.23;2.20;;;19.80;61.90;;;;;;5066930;28;20003;-63
2022/05/11 05:36:06;;;;;;;7.95;2.20;;;19.80;61.50;;;;;;5035925;28;20021;-64
2022/05/11 05:38:32;;;;;;;6.32;2.17;;;19.80;61.50;;;;;;5034587;28;20397;-64
2022/05/11 05:40:58;;;;;;;8.63;2.30;;;19.80;61.60;;;;;;5037468;28;20044;-64
2022/05/11 05:43:24;;;;;;;11.25;2.47;;;19.80;61.50;;;;;;5038242;28;20163;-64
2022/05/11 05:45:50;;;;;;;7.18;2.20;;;19.80;61.40;;;;;;5032969;28;20030;-64
2022/05/11 05:48:16;;;;;;;7.45;2.08;;;19.80;61.30;;;;;;5031622;28;20029;-64
2022/05/11 05:50:42;;;;;;;8.32;2.30;;;19.80;61.40;;;;;;5033564;28;20021;-64
2022/05/11 05:53:08;;;;;;;7.75;2.17;;;19.80;61.50;;;;;;5035062;28;20041;-64
2022/05/11 05:55:33;;;;;;;10.25;2.17;;;19.80;61.50;;;;;;5037873;28;20102;-64
2022/05/11 05:57:59;;;;;;;9.45;2.65;;;19.80;61.70;;;;;;5035070;28;20299;-64
2022/05/11 06:00:26;;;;;;;5.72;2.10;;;19.80;61.60;;;;;;5033040;28;20188;-64
2022/05/11 06:02:53;;;;;;;11.98;2.33;;;19.80;61.60;;;;;;5032070;28;20029;-64
2022/05/11 06:05:19;;;;;;;7.18;2.30;;;19.80;61.70;;;;;;5029813;28;20036;-64
2022/05/11 06:07:44;;;;;;;9.63;2.38;;;19.80;61.60;;;;;;5035891;28;20022;-64
2022/05/11 06:10:10;;;;;;;8.70;2.45;;;19.80;62.70;;;;;;5036958;28;20033;-64
2022/05/11 06:12:36;;;;;;;6.95;2.20;;;19.80;61.60;;;;;;5042174;28;20075;-64
2022/05/11 06:15:02;;;;;;;6.72;1.90;;;19.80;61.60;;;;;;5040952;28;20041;-64
2022/05/11 06:17:29;;;;;;;9.25;2.97;;;19.80;61.70;;;;;;5035881;28;20635;-64
2022/05/11 06:19:54;;;;;;;9.20;2.20;;;19.70;61.60;;;;;;5033009;28;20055;-64
2022/05/11 06:22:21;;;;;;;8.15;2.33;;;19.80;61.70;;;;;;5036508;28;20461;-64
2022/05/11 06:24:47;;;;;;;6.60;2.15;;;19.80;61.60;;;;;;5033347;28;20104;-65
2022/05/11 06:27:20;;;;;;;5.78;1.90;;;19.70;61.70;;;;;;5035307;28;20112;-64
2022/05/11 06:29:56;;;;;;;7.65;2.45;;;19.70;61.70;;;;;;5038453;28;22060;-64
2022/05/11 06:32:25;;;;;;;8.07;2.15;;;19.70;61.70;;;;;;5031211;28;20452;-64
2022/05/11 06:34:51;;;;;;;8.05;2.13;;;19.70;61.60;;;;;;5033023;28;20250;-64
2022/05/11 06:37:17;;;;;;;7.35;2.15;;;19.70;62.70;;;;;;5036678;28;20352;-64
2022/05/11 06:39:43;;;;;;;8.02;1.88;;;19.70;61.60;;;;;;5034219;28;20061;-65
2022/05/11 06:42:10;;;;;;;7.38;1.90;;;19.70;61.70;;;;;;5032938;28;20115;-65
2022/05/11 06:44:36;;;;;;;8.20;2.05;;;19.70;61.50;;;;;;5032911;28;20052;-64
2022/05/11 06:47:02;;;;;;;6.95;1.95;;;19.70;61.40;;;;;;5033149;28;20036;-65
2022/05/11 06:49:27;;;;;;;6.63;1.98;;;19.70;61.50;;;;;;5037009;28;20025;-64
2022/05/11 06:51:53;;;;;;;7.95;2.05;;;19.80;62.60;;;;;;5037306;28;20025;-65
2022/05/11 06:59:47;;;;;;;6.55;2.28;;;19.70;61.60;;;;;;5033058;28;20032;-64
2022/05/11 07:02:13;;;;;;;8.48;2.20;;;19.80;61.70;;;;;;5034139;28;20410;-64
2022/05/11 07:04:40;;;;;;;8.27;2.40;;;19.70;61.50;;;;;;5031445;28;20025;-64
2022/05/11 07:07:06;;;;;;;5.90;2.10;;;19.80;61.60;;;;;;5033255;28;20056;-64
2022/05/11 07:09:33;;;;;;;5.95;1.85;;;19.70;61.50;;;;;;5033606;28;20029;-63
2022/05/11 07:12:17;;;;;;;5.97;1.92;;;19.70;61.50;;;;;;5031420;28;20403;-64
2022/05/11 07:14:47;;;;;;;5.93;1.93;;;19.70;61.60;;;;;;5032765;28;20429;-65
2022/05/11 07:17:22;;;;;;;7.68;2.58;;;19.70;61.50;;;;;;5031908;28;20029;-65
2022/05/11 07:19:48;;;;;;;6.28;2.00;;;19.70;61.60;;;;;;5035773;28;20036;-64
2022/05/11 07:22:13;;;;;;;5.18;1.92;;;19.70;61.60;;;;;;5033963;28;20025;-64
2022/05/11 07:24:42;;;;;;;6.32;2.10;;;19.70;61.40;;;;;;5031312;28;20025;-64
2022/05/11 07:27:08;;;;;;;6.18;1.95;;;19.70;61.40;;;;;;5027851;28;20060;-64
2022/05/11 07:29:33;;;;;;;11.60;2.20;;;19.70;61.40;;;;;;5035782;28;20064;-64
2022/05/11 07:31:59;;;;;;;6.10;2.00;;;19.70;61.50;;;;;;5033841;28;20028;-64
2022/05/11 07:34:25;;;;;;;5.28;2.03;;;19.70;61.60;;;;;;5033976;28;20451;-64
2022/05/11 07:36:54;;;;;;;6.03;2.13;;;19.70;61.50;;;;;;5032873;28;20462;-64
2022/05/11 07:39:21;;;;;;;6.07;2.10;;;19.70;61.50;;;;;;5034567;28;20029;-64
2022/05/11 07:41:47;;;;;;;9.43;2.45;;;19.70;61.60;;;;;;5029454;28;20076;-64
2022/05/11 07:44:12;;;;;;;7.07;1.85;;;19.70;61.50;;;;;;5030523;28;20124;-64
2022/05/11 07:46:38;;;;;;;4.90;1.90;;;19.70;61.50;;;;;;5034663;28;20065;-64
2022/05/11 07:49:04;;;;;;;7.70;2.00;;;19.70;61.50;;;;;;5032656;28;20025;-64
2022/05/11 07:51:31;;;;;;;6.93;2.42;;;19.70;61.50;;;;;;5031182;28;20087;-65
2022/05/11 07:53:57;;;;;;;7.82;2.30;;;19.70;61.50;;;;;;5033384;28;20039;-64
2022/05/11 08:01:51;;;;;;;9.73;2.17;;;19.70;61.40;;;;;;5034406;28;20406;-64
2022/05/11 08:04:16;;;;;;;5.93;2.08;;;19.70;62.40;;;;;;5035584;28;20017;-64
2022/05/11 08:06:42;;;;;;;6.57;2.22;;;19.70;61.30;;;;;;5031619;28;20025;-65
2022/05/11 08:09:08;;;;;;;6.80;2.13;;;19.70;61.30;;;;;;5033232;28;20033;-64
2022/05/11 08:11:33;;;;;;;6.05;2.00;;;19.70;61.40;;;;;;5028677;28;20364;-64
2022/05/11 08:13:59;;;;;;;4.72;1.88;;;19.70;61.30;;;;;;5035706;28;20104;-64
2022/05/11 08:16:26;;;;;;;7.43;2.40;;;19.70;61.30;;;;;;5033776;28;20414;-64
2022/05/11 08:18:52;;;;;;;5.70;2.15;;;19.70;61.30;;;;;;5029725;28;20104;-64
2022/05/11 08:21:19;;;;;;;7.45;2.30;;;19.70;61.20;;;;;;5031860;28;20111;-64
2022/05/11 08:23:45;;;;;;;5.88;1.90;;;19.70;61.20;;;;;;5037733;28;20018;-64
2022/05/11 08:26:10;;;;;;;5.13;1.73;;;19.70;61.20;;;;;;5034363;28;20041;-64
2022/05/11 08:28:36;;;;;;;5.68;2.00;;;19.80;61.30;;;;;;5036090;28;20044;-64
2022/05/11 08:33:45;;;;;;;6.07;2.08;;;19.80;61.40;;;;;;5035609;28;20044;-64
2022/05/11 08:36:19;;;;;;;6.07;2.00;;;19.80;61.50;;;;;;5033363;28;20033;-64
2022/05/11 08:38:47;;;;;;;6.03;2.07;;;19.80;61.40;;;;;;5032015;28;20486;-64
2022/05/11 08:41:26;;;;;;;5.95;2.03;;;19.90;62.40;;;;;;5033011;28;20033;-64
2022/05/11 08:43:59;;;;;;;7.90;2.00;;;19.90;61.40;;;;;;5033542;28;20040;-64
2022/05/11 08:46:43;;;;;;;6.68;2.13;;;19.90;61.40;;;;;;5067655;28;20076;-64
2022/05/11 08:49:21;;;;;;;5.33;2.10;;;19.90;61.40;;;;;;5034953;28;20025;-64
2022/05/11 08:52:00;;;;;;;6.60;2.30;;;19.90;61.40;;;;;;5036507;28;20021;-64
2022/05/11 08:54:50;;;;;;;6.03;2.10;;;20.00;61.40;;;;;;5032948;28;20025;-64
2022/05/11 08:57:23;;;;;;;5.32;1.90;;;20.00;61.30;;;;;;5034147;28;20041;-65
2022/05/11 08:59:51;;;;;;;7.00;1.95;;;20.00;61.30;;;;;;5031849;28;20401;-64
2022/05/11 09:02:43;;;;;;;4.80;1.70;;;20.00;61.20;;;;;;5036442;28;20059;-64
2022/05/11 09:05:08;;;;;;;8.63;1.90;;;20.00;61.20;;;;;;5050038;28;20387;-64
2022/05/11 09:07:37;;;;;;;4.63;1.90;;;20.00;61.20;;;;;;5035928;28;20032;-64
2022/05/11 09:10:03;;;;;;;6.03;2.08;;;20.00;61.10;;;;;;5038929;28;20029;-64
2022/05/11 09:12:28;;;;;;;7.40;2.17;;;20.00;61.10;;;;;;5039292;28;20037;-64
2022/05/11 09:14:56;;;;;;;7.38;1.70;;;20.10;61.20;;;;;;5040134;28;20037;-64
2022/05/11 09:17:32;;;;;;;5.57;2.00;;;20.10;61.10;;;;;;5034374;28;20029;-65
2022/05/11 09:20:07;;;;;;;7.72;1.80;;;20.10;61.10;;;;;;5037000;28;20036;-64
2022/05/11 09:22:37;;;;;;;6.15;1.80;;;20.10;61.10;;;;;;5035937;28;20104;-64
2022/05/11 09:25:14;;;;;;;6.05;2.08;;;20.20;61.00;;;;;;5034514;28;20034;-65
2022/05/11 09:27:40;;;;;;;4.63;1.70;;;20.20;61.00;;;;;;5037560;28;20119;-64
2022/05/11 09:30:17;;;;;;;6.05;1.95;;;20.20;61.00;;;;;;5032454;28;20121;-64
2022/05/11 09:32:44;;;;;;;4.78;1.85;;;20.20;61.00;;;;;;5028777;28;20017;-64
2022/05/11 09:35:35;;;;;;;6.07;1.77;;;20.20;61.00;;;;;;5039501;28;20045;-64
2022/05/11 09:38:19;;;;;;;4.90;1.80;;;20.20;61.00;;;;;;5035463;28;20025;-65
2022/05/11 09:41:08;;;;;;;6.33;1.90;;;20.20;60.80;;;;;;5033898;28;20394;-64
2022/05/11 09:43:46;;;;;;;6.30;1.98;;;20.20;60.90;;;;;;5036827;28;20426;-64
2022/05/11 09:46:22;;;;;;;5.35;1.92;;;20.20;60.80;;;;;;5039699;28;20147;-64
2022/05/11 09:49:07;;;;;;;5.25;2.17;;;20.20;60.80;;;;;;5041994;28;20020;-65
2022/05/11 09:51:40;;;;;;;;;;;20.20;60.80;;;;;;5033055;28;20029;-64
2022/05/11 09:54:18;;;;;;;5.43;1.85;;;20.20;60.80;;;;;;5031153;28;19924;-64
2022/05/11 09:56:57;;;;;;;5.00;1.70;;;20.20;60.80;;;;;;5035147;28;20495;-64
2022/05/11 09:59:27;;;;;;;6.30;1.77;;;20.20;60.80;;;;;;5031278;28;20502;-65
2022/05/11 10:02:18;;;;;;;6.00;1.90;;;20.20;60.70;;;;;;5032730;28;20037;-65
2022/05/11 10:04:50;;;;;;;5.30;1.85;;;20.20;60.70;;;;;;5021651;28;20119;-64
2022/05/11 10:07:18;;;;;;;4.90;1.90;;;20.30;61.80;;;;;;5035336;28;20041;-64
2022/05/11 10:09:48;;;;;;;4.90;1.85;;;20.30;60.70;;;;;;5038345;28;20049;-64
2022/05/11 10:12:16;;;;;;;2.92;1.42;;;20.30;60.80;;;;;;5036939;28;20030;-64
2022/05/11 10:23:09;;;;;;;5.28;1.73;;;20.40;60.60;;;;;;5023351;28;20061;-64
2022/05/11 10:25:41;;;;;;;3.30;1.58;;;20.40;60.90;;;;;;5036511;28;20018;-64
2022/05/11 10:28:33;;;;;;;4.93;1.80;;;20.40;60.60;;;;;;5019126;28;20051;-64
2022/05/11 10:31:10;;;;;;;5.35;1.70;;;20.40;60.60;;;;;;5034038;28;20033;-64
2022/05/11 10:34:09;;;;;;;6.47;1.73;;;20.40;60.60;;;;;;5023199;28;20045;-64
2022/05/11 10:37:29;;;;;;;5.57;1.80;;;20.50;60.60;;;;;;5019232;28;20131;-64
2022/05/11 10:40:18;;;;;;;3.28;1.50;;;20.50;60.70;;;;;;4965958;28;20113;-64
2022/05/11 10:43:31;;;;;;;4.20;1.67;;;20.50;60.50;;;;;;4974882;28;20042;-64
2022/05/11 10:45:59;;;;;;;5.13;1.70;;;20.50;60.50;;;;;;4995712;28;20056;-64
2022/05/11 10:48:46;;;;;;;5.78;1.80;;;20.50;60.60;;;;;;4983947;28;20050;-64
2022/05/11 10:51:27;;;;;;;4.65;1.58;;;20.50;60.60;;;;;;4994147;28;20034;-64
2022/05/11 10:54:15;;;;;;;5.63;1.85;;;20.50;60.60;;;;;;4996687;28;20049;-64
2022/05/11 10:57:10;;;;;;;3.65;1.60;;;20.50;60.80;;;;;;4983675;28;20415;-65
2022/05/11 10:59:52;;;;;;;5.78;1.88;;;20.50;60.70;;;;;;4977814;28;20132;-64
2022/05/11 11:02:41;;;;;;;4.25;1.60;;;20.50;60.70;;;;;;4982156;28;20041;-64
2022/05/11 11:05:22;;;;;;;4.20;1.60;;;20.50;60.70;;;;;;4983124;28;20403;-64
2022/05/11 11:07:57;;;;;;;5.72;1.75;;;20.50;60.60;;;;;;4980079;28;20046;-64
2022/05/11 11:10:23;;;;;;;5.18;1.60;;;20.60;60.90;;;;;;4962449;28;20080;-64
2022/05/11 11:13:10;;;;;;;4.50;1.63;;;20.50;60.60;;;;;;4985646;28;20401;-65
2022/05/11 11:15:37;;;;;;;4.50;1.60;;;20.50;60.80;;;;;;5021665;28;20073;-65
2022/05/11 11:18:03;;;;;;;3.50;1.85;;;20.50;60.90;;;;;;5005880;28;20045;-65
2022/05/11 11:20:29;;;;;;;3.83;1.55;;;20.50;60.80;;;;;;5007704;28;20080;-65
2022/05/11 11:23:09;;;;;;;8.02;1.92;;;20.50;61.10;;;;;;5028450;28;20041;-65
2022/05/11 11:25:54;;;;;;;4.18;1.65;;;20.50;61.30;;;;;;5016695;28;20041;-64
2022/05/11 11:28:21;;;;;;;4.15;1.48;;;20.60;61.70;;;;;;5014437;28;20021;-64
2022/05/11 11:30:59;;;;;;;4.35;1.77;;;20.60;61.70;;;;;;5020761;28;20599;-66
2022/05/11 11:33:39;;;;;;;5.90;1.60;;;20.60;61.70;;;;;;5017995;28;20506;-65
2022/05/11 11:36:26;;;;;;;8.55;1.83;;;20.60;61.80;;;;;;5009903;28;20088;-67
2022/05/11 11:38:53;;;;;;;4.57;1.75;;;20.60;61.90;;;;;;5038980;28;20037;-67
2022/05/11 11:41:30;;;;;;;9.05;2.00;;;20.60;62.00;;;;;;5032620;28;20756;-67
2022/05/11 11:44:02;;;;;;;6.30;1.80;;;20.60;62.10;;;;;;5033148;28;20034;-67
2022/05/11 11:46:36;;;;;;;7.80;1.80;;;20.70;62.20;;;;;;5038117;28;20107;-66
2022/05/11 11:49:18;;;;;;;12.40;1.90;;;20.70;62.20;;;;;;5033656;28;20049;-67
2022/05/11 11:52:07;;;;;;;12.75;2.22;;;20.70;61.80;;;;;;5039304;28;20042;-67
2022/05/11 11:54:39;;;;;;;12.45;1.95;;;20.80;61.90;;;;;;5032252;28;20144;-67
2022/05/11 11:57:16;;;;;;;7.93;1.83;;;20.80;61.90;;;;;;5035485;28;20092;-67
2022/05/11 11:59:49;;;;;;;12.57;1.80;;;20.80;61.90;;;;;;5038620;28;21784;-67
2022/05/11 12:02:37;;;;;;;7.13;1.60;;;20.80;61.90;;;;;;5037514;28;20026;-67
2022/05/11 12:05:06;;;;;;;9.43;2.08;;;20.90;62.00;;;;;;5040134;28;20108;-67
2022/05/11 12:15:46;;;;;;;10.45;2.00;;;21.00;62.20;;;;;;5036976;28;20043;-66
2022/05/11 12:18:28;;;;;;;12.40;2.17;;;21.00;62.10;;;;;;5040706;28;20029;-67
2022/05/11 12:20:55;;;;;;;12.02;1.95;;;21.00;62.30;;;;;;5043924;28;20052;-67
2022/05/11 12:23:28;;;;;;;12.18;1.88;;;21.00;62.00;;;;;;5042489;28;20033;-67
2022/05/11 12:25:59;;;;;;;10.10;2.25;;;21.00;62.00;;;;;;5038533;28;20556;-67
2022/05/11 12:28:39;;;;;;;9.82;1.83;;;21.10;62.00;;;;;;5037889;28;20545;-67
2022/05/11 12:31:06;;;;;;;8.75;1.80;;;21.10;62.10;;;;;;5032664;28;20116;-67
2022/05/11 12:33:34;;;;;;;9.88;1.80;;;21.10;62.00;;;;;;5049305;28;20051;-67
2022/05/11 12:36:00;;;;;;;9.13;1.90;;;21.10;62.00;;;;;;5038276;28;20043;-67
2022/05/11 12:38:33;;;;;;;12.40;1.90;;;21.10;62.00;;;;;;5045529;28;20104;-67
2022/05/11 12:41:08;;;;;;;8.02;1.70;;;21.20;62.10;;;;;;5036167;28;20116;-67
2022/05/11 12:43:38;;;;;;;8.27;1.77;;;21.20;62.10;;;;;;5039724;28;20026;-67
2022/05/11 12:46:15;;;;;;;11.65;2.00;;;21.20;62.10;;;;;;5041886;28;20154;-65
2022/05/11 12:48:56;;;;;;;9.00;1.67;;;21.20;62.10;;;;;;5039307;28;20049;-67
2022/05/11 12:51:35;;;;;;;12.43;1.80;;;21.20;62.10;;;;;;5034241;28;20094;-68
2022/05/11 12:54:03;;;;;;;8.95;1.77;;;21.20;62.10;;;;;;5048910;28;20029;-67
2022/05/11 12:56:34;;;;;;;8.25;2.00;;;21.20;62.10;;;;;;5036217;28;20037;-67
2022/05/11 12:59:18;;;;;;;6.15;1.70;;;21.20;62.10;;;;;;5037617;28;20021;-67
2022/05/11 13:01:44;;;;;;;5.97;1.83;;;21.30;62.20;;;;;;5035965;28;20036;-66
2022/05/11 13:04:23;;;;;;;8.57;2.03;;;21.30;62.10;;;;;;5036423;28;20025;-66
2022/05/11 13:06:54;;;;;;;6.57;1.65;;;21.30;62.00;;;;;;5036561;28;20028;-65
2022/05/11 13:09:28;;;;;;;9.82;1.80;;;21.30;62.00;;;;;;5042123;28;20081;-65
2022/05/11 13:11:54;;;;;;;9.85;2.17;;;21.30;62.10;;;;;;5043755;28;20030;-66
2022/05/11 13:14:31;;;;;;;8.73;1.88;;;21.30;61.90;;;;;;5041664;28;20045;-66
2022/05/11 13:16:59;;;;;;;7.88;1.95;;;21.40;61.80;;;;;;5022795;28;20031;-66
2022/05/11 13:19:36;;;;;;;9.20;2.20;;;21.40;61.70;;;;;;5042070;28;20036;-66
2022/05/11 13:22:22;;;;;;;14.95;2.47;;;21.40;61.90;;;;;;5036909;28;20037;-66
2022/05/11 13:24:49;;;;;;;14.18;2.20;;;21.40;62.10;;;;;;5034573;28;20018;-65
2022/05/11 13:27:40;;;;;;;10.75;2.20;;;21.50;62.30;;;;;;5033948;28;20505;-65
2022/05/11 13:30:15;;;;;;;15.40;2.10;;;21.40;62.20;;;;;;5038286;28;20032;-66
2022/05/11 13:32:55;;;;;;;11.20;1.80;;;21.50;62.30;;;;;;5037062;28;20066;-66
2022/05/11 13:35:37;;;;;;;11.52;2.40;;;21.50;62.20;;;;;;5042407;28;20042;-64
2022/05/11 13:38:09;;;;;;;13.07;2.25;;;21.40;62.20;;;;;;5042910;28;20025;-65
2022/05/11 13:40:53;;;;;;;12.15;2.30;;;21.50;62.30;;;;;;5041065;28;20402;-65
2022/05/11 13:43:21;;;;;;;13.30;2.50;;;21.50;62.10;;;;;;5041069;28;20036;-65